Time;durP1;ratioP1;P1;durP2;ratioP2;P2;SDS_P1;SDS_P2;PMS_P1;PMS_P2;Temp;Humidity;BMP_temperature;BMP_pressure;BME280_temperature;BME280_humidity;BME280_pressure;Samples;Min_cycle;Max_cycle;Signal;HPM_P1;HPM_P2
2021/04/16 00:01:46;;;;;;;1.23;0.80;;;6.50;72.90;;;;;;3558712;40;20080;-67
2021/04/16 00:04:12;;;;;;;2.17;1.20;;;6.50;72.90;;;;;;3557735;40;20037;-67
2021/04/16 00:06:38;;;;;;;1.73;0.82;;;6.50;73.30;;;;;;3557514;40;20135;-67
2021/04/16 00:09:04;;;;;;;1.10;1.00;;;6.50;73.30;;;;;;3557334;40;20717;-67
2021/04/16 00:11:30;;;;;;;1.92;1.00;;;6.50;73.20;;;;;;3558035;40;20038;-68
2021/04/16 00:13:55;;;;;;;2.28;1.10;;;6.50;72.90;;;;;;3556907;40;20328;-66
2021/04/16 00:16:25;;;;;;;3.05;1.08;;;6.50;73.20;;;;;;3558501;40;20029;-65
2021/04/16 00:18:51;;;;;;;4.63;1.20;;;6.50;73.20;;;;;;3558100;40;20026;-67
2021/04/16 00:21:17;;;;;;;1.55;1.30;;;6.50;72.80;;;;;;3556484;40;20083;-67
2021/04/16 00:23:43;;;;;;;1.48;0.80;;;6.50;72.60;;;;;;3557778;40;20038;-66
2021/04/16 00:26:12;;;;;;;2.28;0.77;;;6.50;72.20;;;;;;3557483;40;20024;-65
2021/04/16 00:28:38;;;;;;;2.00;0.90;;;6.50;71.40;;;;;;3557941;40;20046;-67
2021/04/16 00:31:10;;;;;;;4.03;1.30;;;6.60;71.70;;;;;;3557742;40;20782;-67
2021/04/16 00:33:35;;;;;;;0.95;0.60;;;6.60;71.00;;;;;;3557684;40;20133;-67
2021/04/16 00:36:01;;;;;;;2.05;1.05;;;6.60;71.50;;;;;;3557796;40;20060;-66
2021/04/16 00:38:27;;;;;;;1.17;0.80;;;6.60;71.40;;;;;;3559048;40;20029;-67
2021/04/16 00:40:57;;;;;;;0.95;0.73;;;6.60;70.60;;;;;;3558915;40;20037;-67
2021/04/16 00:43:25;;;;;;;3.30;1.00;;;6.60;71.00;;;;;;3558541;40;20061;-66
2021/04/16 00:46:19;;;;;;;1.60;0.95;;;6.70;70.70;;;;;;3559761;40;20041;-67
2021/04/16 00:48:50;;;;;;;1.85;0.82;;;6.60;71.10;;;;;;3556496;40;20045;-67
2021/04/16 00:51:55;;;;;;;2.47;0.90;;;6.70;71.00;;;;;;3559092;40;20049;-67
2021/04/16 00:54:25;;;;;;;1.60;0.93;;;6.60;71.60;;;;;;3558086;40;20041;-68
2021/04/16 00:56:52;;;;;;;0.98;0.77;;;6.70;71.00;;;;;;3559728;40;20017;-67
2021/04/16 00:59:22;;;;;;;1.00;0.80;;;6.70;70.00;;;;;;3559034;40;20041;-67
2021/04/16 01:01:48;;;;;;;2.08;0.80;;;6.70;68.90;;;;;;3559191;40;20415;-67
2021/04/16 01:04:13;;;;;;;2.00;0.98;;;6.70;70.00;;;;;;3558784;40;20156;-66
2021/04/16 01:06:39;;;;;;;1.98;0.85;;;6.70;69.80;;;;;;3558734;40;20364;-67
2021/04/16 01:09:06;;;;;;;1.50;0.85;;;6.70;70.70;;;;;;3558238;40;20038;-66
2021/04/16 01:11:32;;;;;;;2.88;0.95;;;6.70;70.70;;;;;;3558163;40;20624;-67
2021/04/16 01:13:58;;;;;;;2.67;0.90;;;6.70;69.90;;;;;;3557285;40;20150;-68
2021/04/16 01:16:30;;;;;;;0.85;0.80;;;6.70;70.60;;;;;;3558241;40;20066;-67
2021/04/16 01:18:58;;;;;;;2.30;0.77;;;6.80;70.00;;;;;;3558860;40;20056;-66
2021/04/16 01:21:31;;;;;;;1.42;1.00;;;6.70;70.40;;;;;;3557227;40;20420;-65
2021/04/16 01:24:00;;;;;;;1.13;0.70;;;6.70;70.80;;;;;;3558462;40;20045;-66
2021/04/16 01:26:32;;;;;;;1.42;0.90;;;6.70;70.40;;;;;;3558553;40;20487;-67
2021/04/16 01:28:58;;;;;;;3.50;1.50;;;6.70;70.90;;;;;;3558653;40;20041;-66
2021/04/16 01:31:27;;;;;;;1.50;0.80;;;6.80;70.20;;;;;;3557872;40;20029;-67
2021/04/16 01:33:53;;;;;;;2.08;0.77;;;6.80;70.10;;;;;;3557573;40;20111;-67
2021/04/16 01:36:24;;;;;;;3.83;0.90;;;6.80;70.00;;;;;;3557070;40;20116;-68
2021/04/16 01:38:50;;;;;;;1.23;0.80;;;6.80;68.90;;;;;;3556669;40;20037;-66
2021/04/16 01:41:17;;;;;;;2.38;0.73;;;6.80;69.80;;;;;;3558587;40;20048;-67
2021/04/16 01:43:52;;;;;;;2.05;1.00;;;6.80;69.20;;;;;;3558360;40;20037;-67
2021/04/16 01:46:19;;;;;;;0.70;0.70;;;6.90;68.80;;;;;;3557684;40;20018;-67
2021/04/16 01:48:52;;;;;;;2.47;0.80;;;6.90;68.30;;;;;;3558092;40;20025;-66
2021/04/16 01:51:22;;;;;;;1.70;0.70;;;6.90;69.00;;;;;;3557758;40;20029;-67
2021/04/16 01:53:48;;;;;;;3.63;1.02;;;6.80;68.60;;;;;;3557598;40;20722;-66
2021/04/16 01:56:14;;;;;;;1.67;0.75;;;6.80;68.40;;;;;;3557576;40;20036;-67
2021/04/16 01:58:40;;;;;;;2.72;0.85;;;6.80;68.30;;;;;;3558100;40;20025;-67
2021/04/16 02:01:07;;;;;;;4.88;1.65;;;6.80;68.80;;;;;;3557848;40;20017;-67
2021/04/16 02:03:33;;;;;;;3.60;0.90;;;6.90;68.70;;;;;;3558273;40;20041;-67
2021/04/16 02:05:59;;;;;;;4.22;1.10;;;6.90;69.40;;;;;;3557999;40;20045;-67
2021/04/16 02:08:26;;;;;;;3.80;1.40;;;6.90;68.40;;;;;;3556471;40;20037;-67
2021/04/16 02:10:52;;;;;;;2.13;0.77;;;6.90;68.60;;;;;;3556482;40;20057;-67
2021/04/16 02:13:18;;;;;;;2.13;0.60;;;6.90;68.20;;;;;;3556537;40;20021;-68
2021/04/16 02:15:44;;;;;;;2.88;1.63;;;6.90;68.40;;;;;;3556517;40;20033;-66
2021/04/16 02:18:09;;;;;;;1.55;0.70;;;6.80;68.00;;;;;;3557293;40;20033;-66
2021/04/16 02:20:35;;;;;;;4.15;0.90;;;6.80;68.20;;;;;;3557556;40;20098;-67
2021/04/16 02:23:01;;;;;;;3.97;0.77;;;6.80;68.20;;;;;;3557573;40;20111;-67
2021/04/16 02:25:27;;;;;;;1.25;0.90;;;6.80;69.10;;;;;;3557966;40;20025;-67
2021/04/16 02:27:53;;;;;;;3.03;0.90;;;6.80;68.60;;;;;;3558009;40;20663;-67
2021/04/16 02:30:37;;;;;;;4.20;1.20;;;6.80;68.50;;;;;;3557688;40;20735;-67
2021/04/16 02:33:03;;;;;;;2.08;0.60;;;6.80;68.90;;;;;;3557954;40;20095;-67
2021/04/16 02:35:29;;;;;;;2.90;1.00;;;6.80;69.30;;;;;;3557667;40;20037;-65
2021/04/16 02:37:55;;;;;;;2.38;0.95;;;6.80;69.10;;;;;;3557460;40;20231;-67
2021/04/16 02:40:24;;;;;;;5.35;1.20;;;6.80;68.90;;;;;;3557270;40;20060;-66
2021/04/16 02:42:52;;;;;;;3.63;1.13;;;6.90;68.40;;;;;;3557373;40;20018;-66
2021/04/16 02:45:20;;;;;;;2.22;0.70;;;6.90;68.30;;;;;;3557268;40;20130;-67
2021/04/16 02:47:46;;;;;;;3.70;1.00;;;6.90;68.50;;;;;;3557028;40;20037;-67
2021/04/16 02:50:15;;;;;;;2.00;0.80;;;6.90;69.30;;;;;;3557299;40;20038;-67
2021/04/16 02:52:41;;;;;;;4.35;0.90;;;6.90;68.50;;;;;;3557300;40;20441;-67
2021/04/16 02:55:08;;;;;;;1.58;0.70;;;6.90;68.00;;;;;;3557112;40;20126;-68
2021/04/16 02:57:34;;;;;;;4.38;0.90;;;6.90;68.20;;;;;;3555454;40;20039;-67
2021/04/16 02:59:59;;;;;;;2.10;0.80;;;6.90;68.50;;;;;;3555899;40;20175;-67
2021/04/16 03:02:25;;;;;;;3.47;1.20;;;6.90;69.00;;;;;;3557109;40;20038;-67
2021/04/16 03:04:51;;;;;;;1.23;0.60;;;6.90;67.70;;;;;;3557221;40;20129;-67
2021/04/16 03:07:16;;;;;;;1.95;0.80;;;6.90;68.30;;;;;;3551091;40;20435;-66
2021/04/16 03:09:42;;;;;;;5.20;1.05;;;6.90;68.30;;;;;;3555577;40;20046;-67
2021/04/16 03:12:08;;;;;;;2.78;0.85;;;6.90;67.80;;;;;;3556681;40;20677;-67
2021/04/16 03:14:34;;;;;;;1.50;0.77;;;6.90;68.30;;;;;;3556385;40;20052;-66
2021/04/16 03:16:59;;;;;;;2.05;0.75;;;6.90;68.10;;;;;;3556770;40;20307;-66
2021/04/16 03:19:25;;;;;;;3.63;1.05;;;7.00;67.60;;;;;;3557482;40;20045;-67
2021/04/16 03:21:51;;;;;;;1.63;0.90;;;6.90;67.30;;;;;;3556823;40;20048;-67
2021/04/16 03:24:16;;;;;;;3.10;0.90;;;6.90;68.20;;;;;;3557781;40;20182;-66
2021/04/16 03:26:42;;;;;;;5.18;1.10;;;6.90;68.10;;;;;;3557439;40;20033;-67
2021/04/16 03:29:08;;;;;;;2.40;1.10;;;6.90;68.70;;;;;;3557443;40;20817;-66
2021/04/16 03:31:33;;;;;;;2.55;0.90;;;6.90;67.80;;;;;;3557192;40;20050;-67
2021/04/16 03:34:00;;;;;;;2.42;0.85;;;6.90;68.20;;;;;;3558144;40;20022;-67
2021/04/16 03:36:28;;;;;;;3.55;1.02;;;6.90;68.10;;;;;;3556083;40;20119;-67
2021/04/16 03:38:54;;;;;;;1.58;0.90;;;6.90;68.40;;;;;;3557266;40;20053;-67
2021/04/16 03:41:20;;;;;;;2.08;0.80;;;6.80;67.70;;;;;;3557277;40;20182;-68
2021/04/16 03:43:46;;;;;;;1.92;0.90;;;6.90;68.60;;;;;;3556895;40;20065;-67
2021/04/16 03:46:12;;;;;;;2.00;0.85;;;6.90;68.60;;;;;;3557350;40;20711;-67
2021/04/16 03:48:38;;;;;;;2.03;1.02;;;6.90;69.30;;;;;;3555572;40;20048;-67
2021/04/16 03:51:05;;;;;;;2.40;1.00;;;6.80;69.10;;;;;;3556906;40;20021;-66
2021/04/16 03:53:31;;;;;;;2.15;0.80;;;6.90;68.90;;;;;;3556412;40;20049;-65
2021/04/16 03:55:57;;;;;;;1.90;0.98;;;6.90;67.20;;;;;;3554707;40;20763;-67
2021/04/16 03:58:23;;;;;;;3.60;0.80;;;6.80;67.60;;;;;;3555569;40;20073;-67
2021/04/16 04:00:49;;;;;;;2.15;0.95;;;6.90;68.00;;;;;;3554942;40;20061;-67
2021/04/16 04:03:16;;;;;;;1.45;0.80;;;6.90;67.50;;;;;;3557958;40;20415;-67
2021/04/16 04:05:42;;;;;;;3.50;1.20;;;6.80;67.30;;;;;;3555943;40;20337;-67
2021/04/16 04:08:08;;;;;;;2.00;1.05;;;6.90;67.50;;;;;;3558215;40;20038;-67
2021/04/16 04:10:38;;;;;;;1.55;1.05;;;6.80;68.10;;;;;;3557874;40;20037;-67
2021/04/16 04:13:06;;;;;;;3.00;1.13;;;6.90;69.00;;;;;;3558727;40;20339;-67
2021/04/16 04:15:32;;;;;;;2.42;0.68;;;6.90;67.90;;;;;;3560091;40;20034;-67
2021/04/16 04:17:58;;;;;;;0.90;0.52;;;6.90;68.40;;;;;;3559785;40;20025;-67
2021/04/16 04:20:29;;;;;;;5.57;1.00;;;6.90;68.80;;;;;;3559711;40;20036;-67
2021/04/16 04:22:56;;;;;;;3.38;1.10;;;6.90;68.50;;;;;;3559239;40;20026;-66
2021/04/16 04:25:23;;;;;;;4.40;1.10;;;6.90;68.90;;;;;;3559834;40;20057;-65
2021/04/16 04:27:50;;;;;;;3.10;0.98;;;6.80;69.20;;;;;;3559253;40;20072;-67
2021/04/16 04:30:18;;;;;;;3.83;1.60;;;6.80;68.90;;;;;;3558571;40;20048;-66
2021/04/16 04:32:44;;;;;;;4.68;0.80;;;6.80;69.00;;;;;;3560051;40;20663;-67
2021/04/16 04:35:10;;;;;;;4.43;1.40;;;6.70;68.80;;;;;;3559580;40;20038;-66
2021/04/16 04:37:36;;;;;;;2.42;1.20;;;6.70;69.00;;;;;;3559714;40;20107;-66
2021/04/16 04:40:03;;;;;;;4.78;1.00;;;6.70;69.30;;;;;;3559433;40;20034;-67
2021/04/16 04:42:28;;;;;;;1.80;0.82;;;6.70;69.40;;;;;;3559838;40;20033;-67
2021/04/16 04:44:54;;;;;;;2.28;0.80;;;6.60;68.90;;;;;;3559071;40;20583;-67
2021/04/16 04:47:20;;;;;;;3.97;1.20;;;6.60;69.50;;;;;;3559122;40;20034;-67
2021/04/16 04:49:45;;;;;;;2.22;0.90;;;6.60;69.60;;;;;;3559123;40;20050;-67
2021/04/16 04:52:16;;;;;;;2.05;0.75;;;6.70;68.90;;;;;;3558542;40;20690;-67
2021/04/16 04:54:46;;;;;;;2.92;0.73;;;6.70;69.10;;;;;;3559497;40;20112;-66
2021/04/16 04:57:13;;;;;;;2.28;0.80;;;6.80;69.10;;;;;;3557425;40;20065;-67
2021/04/16 04:59:38;;;;;;;3.78;0.95;;;6.80;68.90;;;;;;3558077;40;20034;-66
2021/04/16 05:02:05;;;;;;;2.40;1.10;;;6.80;69.20;;;;;;3559367;40;20119;-66
2021/04/16 05:04:30;;;;;;;3.65;1.27;;;6.80;69.60;;;;;;3557519;40;20092;-65
2021/04/16 05:06:56;;;;;;;3.08;1.35;;;6.90;68.80;;;;;;3559524;40;20041;-67
2021/04/16 05:09:22;;;;;;;3.80;1.10;;;6.90;68.40;;;;;;3559136;40;20036;-66
2021/04/16 05:11:47;;;;;;;2.20;0.90;;;7.00;68.70;;;;;;3559080;40;20036;-67
2021/04/16 05:14:13;;;;;;;4.28;1.58;;;7.00;68.80;;;;;;3559029;40;20821;-68
2021/04/16 05:16:38;;;;;;;3.67;1.15;;;7.10;68.80;;;;;;3558220;40;20026;-67
2021/04/16 05:19:04;;;;;;;7.55;1.40;;;7.20;68.90;;;;;;3557798;40;20083;-67
2021/04/16 05:21:30;;;;;;;5.10;1.42;;;7.20;68.80;;;;;;3559275;40;20639;-67
2021/04/16 05:23:56;;;;;;;4.40;1.30;;;7.30;68.70;;;;;;3557936;40;20025;-67
2021/04/16 05:26:22;;;;;;;2.22;1.08;;;7.30;68.80;;;;;;3559414;40;20066;-66
2021/04/16 05:28:48;;;;;;;1.65;0.70;;;7.40;67.30;;;;;;3559199;40;20143;-67
2021/04/16 05:31:14;;;;;;;4.70;1.13;;;7.50;66.40;;;;;;3558477;40;20059;-67
2021/04/16 05:33:39;;;;;;;7.07;1.27;;;7.60;66.10;;;;;;3558486;40;20030;-67
2021/04/16 05:36:05;;;;;;;4.47;1.23;;;7.60;65.70;;;;;;3557643;40;20038;-67
2021/04/16 05:38:31;;;;;;;4.25;1.40;;;7.70;65.60;;;;;;3559012;40;20026;-67
2021/04/16 05:40:57;;;;;;;3.22;1.38;;;7.70;65.60;;;;;;3558376;40;20037;-68
2021/04/16 05:43:22;;;;;;;2.80;1.10;;;7.70;67.10;;;;;;3556886;40;20089;-66
2021/04/16 05:45:48;;;;;;;3.83;1.50;;;7.70;64.30;;;;;;3559002;40;20311;-68
2021/04/16 05:48:14;;;;;;;4.32;1.10;;;7.80;65.00;;;;;;3558545;40;20043;-68
2021/04/16 05:50:40;;;;;;;2.80;1.10;;;7.90;64.80;;;;;;3558182;40;20037;-65
2021/04/16 05:53:05;;;;;;;7.85;1.67;;;8.00;64.30;;;;;;3558430;40;20057;-65
2021/04/16 05:55:31;;;;;;;4.72;1.10;;;8.10;64.30;;;;;;3558521;40;20029;-68
2021/04/16 05:57:58;;;;;;;6.70;1.17;;;8.10;63.60;;;;;;3558293;40;20101;-67
2021/04/16 06:00:24;;;;;;;5.25;1.08;;;8.20;63.50;;;;;;3556059;40;20048;-68
2021/04/16 06:02:50;;;;;;;1.58;0.98;;;8.40;62.90;;;;;;3558296;40;20033;-67
2021/04/16 06:05:19;;;;;;;2.78;1.17;;;8.50;62.50;;;;;;3557998;40;20139;-68
2021/04/16 06:07:46;;;;;;;4.22;1.20;;;8.70;62.10;;;;;;3558043;40;20033;-67
2021/04/16 06:10:14;;;;;;;5.78;1.38;;;8.70;63.00;;;;;;3557808;40;20044;-67
2021/04/16 06:12:40;;;;;;;5.75;1.48;;;8.80;62.00;;;;;;3557833;40;20345;-68
2021/04/16 06:15:16;;;;;;;4.20;1.08;;;8.90;61.20;;;;;;3557914;40;20056;-68
2021/04/16 06:17:42;;;;;;;;;;;9.00;60.80;;;;;;3558865;40;20029;-67
2021/04/16 06:20:09;;;;;;;3.07;1.20;;;9.30;59.60;;;;;;3556278;40;19933;-68
2021/04/16 06:22:35;;;;;;;5.45;1.00;;;9.40;60.40;;;;;;3557746;40;20052;-68
2021/04/16 06:25:02;;;;;;;2.72;1.05;;;9.60;59.30;;;;;;3556816;40;20216;-68
2021/04/16 06:27:28;;;;;;;3.25;0.85;;;9.80;58.90;;;;;;3557398;40;20025;-68
2021/04/16 06:29:54;;;;;;;7.28;2.10;;;10.00;57.90;;;;;;3557922;40;20060;-67
2021/04/16 06:32:21;;;;;;;3.08;1.42;;;10.40;56.70;;;;;;3554996;40;20042;-67
2021/04/16 06:34:47;;;;;;;3.08;0.80;;;10.60;55.90;;;;;;3553964;40;20044;-68
2021/04/16 06:37:13;;;;;;;5.57;1.20;;;10.80;55.80;;;;;;3558104;40;20307;-66
2021/04/16 06:39:39;;;;;;;2.33;0.90;;;10.90;55.20;;;;;;3557602;40;20092;-67
2021/04/16 06:42:11;;;;;;;3.03;1.00;;;11.00;54.70;;;;;;3556859;40;20026;-67
2021/04/16 06:44:38;;;;;;;3.75;1.33;;;11.30;54.00;;;;;;3557495;40;20037;-67
2021/04/16 06:47:20;;;;;;;2.97;0.70;;;11.60;53.10;;;;;;3558497;40;20419;-68
2021/04/16 06:49:47;;;;;;;4.30;1.10;;;11.80;51.10;;;;;;3557085;40;20049;-68
2021/04/16 06:52:28;;;;;;;6.32;1.00;;;12.00;52.60;;;;;;3556659;40;20155;-66
2021/04/16 06:55:25;;;;;;;3.42;1.00;;;12.00;52.40;;;;;;3556773;40;20048;-67
2021/04/16 06:57:53;;;;;;;7.65;2.08;;;12.10;52.00;;;;;;3557234;40;20037;-68
2021/04/16 07:00:40;;;;;;;3.70;1.10;;;12.10;52.20;;;;;;3558061;40;20180;-68
2021/04/16 07:03:19;;;;;;;2.92;1.13;;;12.10;52.30;;;;;;3557386;40;20029;-68
2021/04/16 07:05:53;;;;;;;4.38;1.50;;;12.00;52.10;;;;;;3553036;40;20132;-68
2021/04/16 07:08:44;;;;;;;3.17;1.00;;;11.90;52.20;;;;;;3557215;40;20084;-67
2021/04/16 07:11:38;;;;;;;3.53;1.15;;;11.80;52.30;;;;;;3557604;40;20428;-68
2021/04/16 07:14:11;;;;;;;6.18;0.95;;;11.60;52.20;;;;;;3553430;40;20029;-68
2021/04/16 07:16:37;;;;;;;5.40;1.13;;;11.60;52.40;;;;;;3557509;40;20038;-68
2021/04/16 07:19:13;;;;;;;2.70;0.82;;;11.60;52.70;;;;;;3557375;40;20121;-67
2021/04/16 07:21:39;;;;;;;;;;;11.60;53.10;;;;;;3556790;40;20142;-67
2021/04/16 07:24:06;;;;;;;5.70;1.30;;;11.60;52.80;;;;;;3557508;40;20762;-68
2021/04/16 07:26:46;;;;;;;5.38;0.95;;;11.60;52.50;;;;;;3557390;40;20029;-68
2021/04/16 07:29:19;;;;;;;4.18;1.23;;;11.50;53.30;;;;;;3557618;40;20037;-67
2021/04/16 07:31:50;;;;;;;2.17;1.10;;;11.40;53.40;;;;;;3555274;40;20753;-68
2021/04/16 07:34:15;;;;;;;7.00;1.20;;;11.40;54.50;;;;;;3557341;40;20037;-68
2021/04/16 07:36:43;;;;;;;2.30;1.13;;;11.60;53.70;;;;;;3556372;40;20146;-68
2021/04/16 07:39:16;;;;;;;5.50;1.20;;;11.80;52.30;;;;;;3557725;40;20053;-68
2021/04/16 07:41:51;;;;;;;3.13;1.17;;;11.90;52.70;;;;;;3557143;40;21047;-67
2021/04/16 07:44:18;;;;;;;1.27;0.60;;;12.20;51.80;;;;;;3556820;40;20613;-67
2021/04/16 07:46:49;;;;;;;3.35;0.90;;;12.40;51.80;;;;;;3553779;40;20123;-65
2021/04/16 07:49:24;;;;;;;2.47;1.00;;;12.60;51.40;;;;;;3549817;40;20077;-68
2021/04/16 07:52:04;;;;;;;3.35;1.27;;;12.60;50.90;;;;;;3557975;40;20902;-67
2021/04/16 07:54:30;;;;;;;1.15;0.90;;;12.80;51.40;;;;;;3558397;40;20431;-69
2021/04/16 07:57:07;;;;;;;2.60;0.90;;;12.90;50.00;;;;;;3560463;40;20131;-65
2021/04/16 07:59:59;;;;;;;5.82;1.17;;;13.00;48.70;;;;;;3559287;40;20033;-67
2021/04/16 08:02:33;;;;;;;2.60;0.90;;;13.00;51.10;;;;;;3560095;40;20033;-67
2021/04/16 08:04:59;;;;;;;4.25;1.17;;;13.00;49.30;;;;;;3561448;40;20066;-66
2021/04/16 08:07:31;;;;;;;5.32;0.93;;;13.10;50.20;;;;;;3562043;40;20029;-67
2021/04/16 08:09:58;;;;;;;3.65;0.98;;;13.40;50.10;;;;;;3559576;40;20045;-65
2021/04/16 08:12:26;;;;;;;2.42;1.10;;;13.90;49.60;;;;;;3559815;40;20045;-65
2021/04/16 08:15:15;;;;;;;3.17;0.95;;;14.20;47.90;;;;;;3558651;40;20564;-61
2021/04/16 08:17:41;;;;;;;3.70;0.95;;;14.10;46.20;;;;;;3556412;40;20045;-61
2021/04/16 08:20:26;;;;;;;2.65;0.95;;;13.90;47.60;;;;;;3559508;40;20731;-61
2021/04/16 08:22:53;;;;;;;2.28;0.90;;;13.90;47.40;;;;;;3558473;40;20298;-62
2021/04/16 08:25:29;;;;;;;104.97;56.72;;;13.90;47.30;;;;;;3559693;40;20580;-61
2021/04/16 08:27:58;;;;;;;6.03;1.40;;;13.90;47.10;;;;;;3559723;40;20665;-60
2021/04/16 08:31:05;;;;;;;3.08;1.00;;;13.90;46.90;;;;;;3560229;40;20529;-60
2021/04/16 08:33:40;;;;;;;3.70;1.02;;;14.00;46.60;;;;;;3548571;40;20025;-61
2021/04/16 08:36:38;;;;;;;2.25;1.05;;;14.10;47.70;;;;;;3560498;40;20045;-61
2021/04/16 08:39:30;;;;;;;2.83;0.82;;;14.20;46.30;;;;;;3559486;40;20034;-62
2021/04/16 08:42:10;;;;;;;2.38;0.82;;;14.20;47.00;;;;;;3559770;40;20053;-60
2021/04/16 08:44:49;;;;;;;4.28;1.30;;;14.10;47.00;;;;;;3558669;40;20611;-61
2021/04/16 08:47:41;;;;;;;5.20;1.23;;;14.00;47.40;;;;;;3560311;40;20424;-60
2021/04/16 08:50:08;;;;;;;5.35;1.02;;;14.00;47.30;;;;;;3559210;40;20036;-62
2021/04/16 08:52:50;;;;;;;2.88;0.98;;;13.80;46.90;;;;;;3560429;40;20049;-62
2021/04/16 08:55:29;;;;;;;4.15;0.90;;;13.80;47.40;;;;;;3558884;40;20070;-60
2021/04/16 08:58:06;;;;;;;1.40;0.98;;;13.80;46.90;;;;;;3559191;40;20035;-62
2021/04/16 09:00:42;;;;;;;2.08;0.93;;;13.90;47.70;;;;;;3559922;40;20041;-62
2021/04/16 09:03:17;;;;;;;2.83;0.88;;;14.00;45.90;;;;;;3559703;40;20037;-61
2021/04/16 09:06:03;;;;;;;2.92;1.10;;;14.30;46.90;;;;;;3560468;40;20139;-61
2021/04/16 09:08:41;;;;;;;2.38;1.00;;;14.40;45.40;;;;;;3559061;40;20253;-61
2021/04/16 09:11:10;;;;;;;12.80;2.00;;;14.20;46.60;;;;;;3559998;40;20029;-62
2021/04/16 09:13:39;;;;;;;3.97;0.90;;;14.10;47.20;;;;;;3560254;40;20033;-61
2021/04/16 09:16:17;;;;;;;4.63;1.30;;;14.00;47.60;;;;;;3558103;40;20044;-62
2021/04/16 09:18:48;;;;;;;3.53;1.30;;;14.20;48.40;;;;;;3559803;40;20029;-61
2021/04/16 09:21:27;;;;;;;6.07;1.50;;;14.90;46.00;;;;;;3559680;40;20109;-61
2021/04/16 09:24:05;;;;;;;3.30;1.17;;;15.40;42.30;;;;;;3558424;40;20033;-61
2021/04/16 09:26:50;;;;;;;0.85;0.80;;;15.60;43.80;;;;;;3560102;40;20045;-62
2021/04/16 09:29:28;;;;;;;4.57;1.65;;;16.50;41.90;;;;;;3560284;40;20402;-62
2021/04/16 09:32:03;;;;;;;2.78;0.75;;;17.60;41.00;;;;;;3559483;40;20042;-60
2021/04/16 09:34:44;;;;;;;3.00;1.00;;;17.70;39.80;;;;;;3560218;40;20022;-60
2021/04/16 09:37:15;;;;;;;1.05;0.80;;;17.50;40.10;;;;;;3556908;40;20022;-62
2021/04/16 09:39:56;;;;;;;3.47;0.90;;;17.30;40.30;;;;;;3557807;40;20036;-64
2021/04/16 09:42:42;;;;;;;3.20;1.23;;;17.00;41.00;;;;;;3558347;40;20042;-63
2021/04/16 09:45:32;;;;;;;2.60;1.10;;;16.90;40.80;;;;;;3558853;40;20093;-61
2021/04/16 09:47:59;;;;;;;1.08;0.60;;;16.80;41.30;;;;;;3558435;40;20040;-63
2021/04/16 09:50:39;;;;;;;2.10;1.10;;;16.60;40.70;;;;;;3559141;40;20084;-62
2021/04/16 09:53:27;;;;;;;2.72;0.80;;;16.40;41.20;;;;;;3557735;40;20071;-62
2021/04/16 09:55:59;;;;;;;2.63;0.77;;;16.30;41.80;;;;;;3559192;40;20030;-62
2021/04/16 09:58:31;;;;;;;5.50;1.20;;;16.20;42.50;;;;;;3558998;40;20029;-61
2021/04/16 10:00:57;;;;;;;1.98;0.95;;;16.10;41.80;;;;;;3556977;40;20036;-61
2021/04/16 10:03:39;;;;;;;2.63;0.93;;;16.00;42.20;;;;;;3558729;40;20073;-60
2021/04/16 10:06:32;;;;;;;3.00;1.10;;;16.00;40.80;;;;;;3557491;40;20371;-60
2021/04/16 10:09:25;;;;;;;3.17;1.40;;;16.00;42.00;;;;;;3558373;40;20053;-61
2021/04/16 10:12:16;;;;;;;2.58;1.10;;;15.80;41.70;;;;;;3553956;40;20045;-58
2021/04/16 10:14:42;;;;;;;3.92;1.25;;;15.70;43.60;;;;;;3557979;40;20033;-66
2021/04/16 10:17:13;;;;;;;3.78;1.33;;;15.60;43.10;;;;;;3557954;40;20056;-60
2021/04/16 10:19:49;;;;;;;2.97;1.08;;;15.50;43.20;;;;;;3557952;40;20049;-60
2021/04/16 10:22:26;;;;;;;3.38;1.20;;;15.30;44.90;;;;;;3556925;40;20040;-60
2021/04/16 12:38:07;;;;;;;5.88;2.22;;;15.40;43.00;;;;;;3558155;40;19947;-63
2021/04/16 12:40:33;;;;;;;3.22;1.70;;;15.30;42.70;;;;;;3557880;40;20038;-63
2021/04/16 12:43:02;;;;;;;3.53;1.52;;;15.30;42.80;;;;;;3558686;40;20037;-64
2021/04/16 12:45:29;;;;;;;2.10;1.02;;;15.30;42.20;;;;;;3557813;40;20037;-63
2021/04/16 12:47:58;;;;;;;3.83;2.00;;;15.30;40.60;;;;;;3546048;40;20033;-62
2021/04/16 12:50:30;;;;;;;3.90;1.30;;;15.20;42.10;;;;;;3557645;40;20026;-62
2021/04/16 12:52:57;;;;;;;3.92;2.30;;;15.30;43.80;;;;;;3559436;40;20053;-62
2021/04/16 12:55:24;;;;;;;7.25;2.90;;;15.40;41.30;;;;;;3560248;40;20410;-62
2021/04/16 12:57:54;;;;;;;3.15;1.42;;;15.60;41.80;;;;;;3557302;40;20041;-62
2021/04/16 13:00:21;;;;;;;1.77;1.17;;;15.70;42.80;;;;;;3558535;40;20372;-62
2021/04/16 13:02:53;;;;;;;5.88;3.40;;;15.80;41.30;;;;;;3558793;40;20030;-67
2021/04/16 13:05:19;;;;;;;3.03;1.35;;;15.90;41.50;;;;;;3559431;40;20400;-67
2021/04/16 13:07:48;;;;;;;2.53;1.17;;;15.90;38.00;;;;;;3559729;40;20044;-68
2021/04/16 13:10:15;;;;;;;6.63;1.63;;;15.80;39.00;;;;;;3557766;40;20081;-68
2021/04/16 13:12:41;;;;;;;2.70;1.55;;;15.80;40.10;;;;;;3558522;40;20076;-68
2021/04/16 13:15:08;;;;;;;2.30;1.30;;;15.80;40.60;;;;;;3559735;40;20659;-67
2021/04/16 13:17:34;;;;;;;2.00;1.38;;;15.60;40.30;;;;;;3559861;40;20033;-67
2021/04/16 13:20:00;;;;;;;4.57;1.10;;;15.50;41.70;;;;;;3558375;40;20029;-67
2021/04/16 13:22:27;;;;;;;2.65;1.25;;;15.50;39.30;;;;;;3559216;40;20041;-68
2021/04/16 13:24:55;;;;;;;5.72;2.97;;;15.20;40.50;;;;;;3559756;40;20134;-68
2021/04/16 13:27:24;;;;;;;4.07;1.85;;;15.00;42.30;;;;;;3558811;40;20041;-67
2021/04/16 13:29:50;;;;;;;3.58;1.13;;;14.90;41.20;;;;;;3557943;40;20037;-67
2021/04/16 13:32:19;;;;;;;4.95;1.25;;;14.90;40.80;;;;;;3558247;40;20025;-68
2021/04/16 13:34:46;;;;;;;2.85;1.20;;;14.80;39.60;;;;;;3559047;40;20029;-67
2021/04/16 13:37:20;;;;;;;5.38;2.40;;;14.80;41.30;;;;;;3559032;40;20037;-67
2021/04/16 13:39:47;;;;;;;4.50;1.80;;;14.90;41.60;;;;;;3557256;40;20111;-67
2021/04/16 13:42:15;;;;;;;3.40;0.90;;;15.00;39.80;;;;;;3559489;40;20038;-67
2021/04/16 13:44:40;;;;;;;4.75;1.80;;;15.10;39.80;;;;;;3558554;40;20026;-68
2021/04/16 13:47:08;;;;;;;3.13;1.65;;;15.20;40.70;;;;;;3559433;40;20465;-67
2021/04/16 13:49:39;;;;;;;3.65;1.40;;;15.30;40.60;;;;;;3559594;40;20022;-68
2021/04/16 13:52:06;;;;;;;4.97;1.90;;;15.40;40.30;;;;;;3556991;40;20072;-68
2021/04/16 13:54:34;;;;;;;6.88;2.05;;;15.50;38.60;;;;;;3558848;40;20867;-68
2021/04/16 13:56:59;;;;;;;5.00;1.60;;;15.50;39.30;;;;;;3557892;40;20791;-67
2021/04/16 13:59:25;;;;;;;5.13;1.77;;;15.50;38.10;;;;;;3558781;40;20053;-67
2021/04/16 14:01:53;;;;;;;3.70;1.23;;;15.40;37.60;;;;;;3558080;40;20033;-67
2021/04/16 14:04:23;;;;;;;3.90;1.33;;;15.40;38.00;;;;;;3557942;40;20575;-68
2021/04/16 14:06:50;;;;;;;3.95;1.42;;;15.30;38.70;;;;;;3559047;40;20423;-66
2021/04/16 14:09:20;;;;;;;4.82;1.10;;;15.20;38.30;;;;;;3558825;40;20029;-68
2021/04/16 14:11:47;;;;;;;1.58;1.10;;;15.20;38.70;;;;;;3558448;40;20033;-69
2021/04/16 14:14:19;;;;;;;1.88;0.98;;;15.20;38.30;;;;;;3558112;40;20040;-68
2021/04/16 14:16:48;;;;;;;2.10;1.23;;;15.20;38.10;;;;;;3558467;40;20041;-68
2021/04/16 14:19:21;;;;;;;4.95;1.10;;;15.20;39.90;;;;;;3556083;40;20037;-69
2021/04/16 14:21:51;;;;;;;2.20;0.90;;;15.30;38.40;;;;;;3557986;40;20598;-69
2021/04/16 14:24:17;;;;;;;1.08;0.90;;;15.40;39.10;;;;;;3557834;40;20029;-63
2021/04/16 14:26:45;;;;;;;3.22;1.30;;;15.60;36.60;;;;;;3557079;40;20045;-61
2021/04/16 14:29:11;;;;;;;2.63;1.02;;;15.60;37.30;;;;;;3557093;40;20147;-62
2021/04/16 14:31:38;;;;;;;2.40;0.98;;;15.70;38.70;;;;;;3558234;40;20037;-62
2021/04/16 14:34:05;;;;;;;4.47;1.10;;;15.70;38.30;;;;;;3557304;40;20041;-63
2021/04/16 14:36:31;;;;;;;3.20;0.85;;;15.50;36.60;;;;;;3557882;40;20040;-62
2021/04/16 14:38:56;;;;;;;4.05;1.13;;;15.60;38.60;;;;;;3558258;40;20034;-62
2021/04/16 14:41:27;;;;;;;2.13;1.05;;;15.50;38.20;;;;;;3554803;40;20026;-63
2021/04/16 14:43:53;;;;;;;3.15;1.20;;;15.40;37.50;;;;;;3556162;40;20695;-63
2021/04/16 14:46:19;;;;;;;4.53;1.33;;;15.20;37.40;;;;;;3557031;40;20046;-62
2021/04/16 14:48:45;;;;;;;2.08;0.77;;;14.90;37.40;;;;;;3555819;40;20041;-63
2021/04/16 14:51:11;;;;;;;3.28;1.50;;;14.70;39.60;;;;;;3554488;40;20042;-64
2021/04/16 14:53:40;;;;;;;5.05;1.55;;;14.60;40.00;;;;;;3558117;40;20052;-62
2021/04/16 14:56:08;;;;;;;5.95;3.80;;;14.40;40.30;;;;;;3556944;40;20171;-62
2021/04/16 14:58:40;;;;;;;2.97;1.65;;;14.40;40.00;;;;;;3557813;40;20069;-63
2021/04/16 15:01:07;;;;;;;3.67;1.13;;;14.30;41.10;;;;;;3557177;40;20021;-62
2021/04/16 15:03:34;;;;;;;1.92;1.00;;;14.30;40.50;;;;;;3557757;40;20054;-62
2021/04/16 15:06:04;;;;;;;4.13;1.33;;;14.30;40.70;;;;;;3557289;40;20041;-62
2021/04/16 15:08:40;;;;;;;4.55;1.80;;;14.20;41.80;;;;;;3556980;40;20433;-62
2021/04/16 15:11:09;;;;;;;3.45;1.90;;;14.20;42.00;;;;;;3557248;40;20018;-62
2021/04/16 15:13:36;;;;;;;4.20;1.58;;;14.20;40.80;;;;;;3557566;40;20075;-62
2021/04/16 15:16:06;;;;;;;1.83;1.10;;;14.20;41.20;;;;;;3557810;40;20453;-62
2021/04/16 15:18:34;;;;;;;2.58;1.15;;;14.20;41.30;;;;;;3555825;40;20044;-62
2021/04/16 15:21:01;;;;;;;3.55;1.17;;;14.30;41.50;;;;;;3557463;40;20982;-62